Time;durP1;ratioP1;P1;durP2;ratioP2;P2;SDS_P1;SDS_P2;PMS_P1;PMS_P2;Temp;Humidity;BMP_temperature;BMP_pressure;BME280_temperature;BME280_humidity;BME280_pressure;Samples;Min_cycle;Max_cycle;Signal;HPM_P1;HPM_P2
2023/07/07 00:01:07;;;;;;;5.20;3.67;;;;;;;16.28;100.00;101808.22;5189376;28;20105;-68
2023/07/07 00:03:38;;;;;;;5.15;3.20;;;;;;;16.29;100.00;101802.81;5188291;28;20026;-67
2023/07/07 00:06:10;;;;;;;4.65;3.10;;;;;;;16.23;100.00;101802.53;5189487;28;20488;-65
2023/07/07 00:08:41;;;;;;;4.50;3.50;;;;;;;16.20;100.00;101805.47;5188714;28;20151;-67
2023/07/07 00:11:12;;;;;;;5.63;3.67;;;;;;;16.20;100.00;101808.09;5188989;28;20519;-66
2023/07/07 00:13:44;;;;;;;5.88;3.70;;;;;;;16.14;100.00;101795.44;5188128;28;20053;-68
2023/07/07 00:16:19;;;;;;;7.68;3.58;;;;;;;16.10;100.00;101805.50;5187717;28;20026;-67
2023/07/07 00:18:50;;;;;;;6.10;3.75;;;;;;;16.08;100.00;101806.59;5188551;28;20026;-67
2023/07/07 00:21:24;;;;;;;6.88;3.72;;;;;;;16.09;100.00;101809.09;5189011;28;20026;-68
2023/07/07 00:23:56;;;;;;;5.53;3.45;;;;;;;16.10;100.00;101802.00;5189562;28;20037;-67
2023/07/07 00:26:27;;;;;;;3.85;2.92;;;;;;;16.16;100.00;101810.19;5188735;28;20042;-67
2023/07/07 00:28:59;;;;;;;6.28;3.88;;;;;;;16.10;100.00;101809.94;5189899;28;20041;-67
2023/07/07 00:31:30;;;;;;;5.10;3.45;;;;;;;16.07;100.00;101811.06;5187210;28;20041;-66
2023/07/07 00:34:02;;;;;;;6.00;3.65;;;;;;;16.04;100.00;101808.69;5188700;28;20030;-67
2023/07/07 00:36:33;;;;;;;5.28;3.35;;;;;;;16.05;100.00;101802.44;5189169;28;20022;-66
2023/07/07 00:39:04;;;;;;;6.72;3.72;;;;;;;16.04;100.00;101804.25;5188001;28;20046;-68
2023/07/07 00:41:36;;;;;;;5.55;3.35;;;;;;;16.01;100.00;101806.34;5189561;28;20021;-65
2023/07/07 00:44:10;;;;;;;5.05;3.40;;;;;;;16.01;100.00;101801.06;5188207;28;20053;-68
2023/07/07 00:46:42;;;;;;;5.63;3.72;;;;;;;15.93;100.00;101807.03;5189420;28;20108;-68
2023/07/07 00:49:18;;;;;;;5.18;3.60;;;;;;;16.02;100.00;101811.50;5189063;28;20027;-66
2023/07/07 00:51:56;;;;;;;6.25;3.53;;;;;;;15.96;100.00;101808.59;5189930;28;20439;-67
2023/07/07 00:54:32;;;;;;;7.43;3.72;;;;;;;15.97;100.00;101802.31;5189283;28;20032;-67
2023/07/07 00:57:04;;;;;;;6.63;3.88;;;;;;;15.81;100.00;101803.72;5188317;28;20492;-66
2023/07/07 00:59:42;;;;;;;5.78;3.92;;;;;;;15.95;100.00;101801.63;5188146;28;20058;-66
2023/07/07 01:02:24;;;;;;;5.22;3.65;;;;;;;15.90;100.00;101806.50;5189507;28;20427;-67
2023/07/07 01:04:59;;;;;;;6.47;3.72;;;;;;;15.85;100.00;101812.22;5192028;28;20034;-66
2023/07/07 01:07:44;;;;;;;5.50;3.83;;;;;;;15.96;100.00;101809.41;5192039;28;20484;-65
2023/07/07 01:10:15;;;;;;;5.38;4.00;;;;;;;15.68;100.00;101811.13;5193738;28;20030;-68
2023/07/07 01:12:48;;;;;;;5.00;4.00;;;;;;;15.69;100.00;101807.50;5192109;28;20575;-66
2023/07/07 01:15:22;;;;;;;5.90;3.60;;;;;;;15.62;100.00;101816.91;5192469;28;20065;-65
2023/07/07 01:18:12;;;;;;;6.35;4.18;;;;;;;15.90;100.00;101809.97;5192761;28;20073;-68
2023/07/07 01:21:01;;;;;;;5.50;3.60;;;;;;;15.69;100.00;101815.41;5192405;28;20050;-67
2023/07/07 01:24:10;;;;;;;4.25;3.78;;;;;;;15.84;100.00;101809.72;5191052;28;20033;-64
2023/07/07 01:27:07;;;;;;;5.88;3.70;;;;;;;15.54;100.00;101814.13;5192746;28;20030;-67
2023/07/07 01:29:47;;;;;;;6.75;3.70;;;;;;;15.43;100.00;101814.28;5191899;28;20034;-67
2023/07/07 01:32:27;;;;;;;6.65;4.15;;;;;;;15.53;100.00;101812.44;5192361;28;20117;-67
2023/07/07 01:35:07;;;;;;;5.18;3.67;;;;;;;15.49;100.00;101811.06;5191239;28;20049;-68
2023/07/07 01:37:38;;;;;;;6.22;4.20;;;;;;;15.40;100.00;101815.38;5191230;28;20325;-68
2023/07/07 01:40:10;;;;;;;6.45;4.18;;;;;;;15.34;100.00;101805.34;5191829;28;20396;-67
2023/07/07 01:42:50;;;;;;;7.85;4.35;;;;;;;15.46;100.00;101806.09;5191312;28;20117;-67
2023/07/07 01:45:37;;;;;;;5.10;3.63;;;;;;;15.49;100.00;101811.91;5192795;28;20038;-68
2023/07/07 01:48:27;;;;;;;5.30;3.83;;;;;;;15.47;100.00;101807.75;5192062;28;20483;-67
2023/07/07 01:51:03;;;;;;;5.80;4.05;;;;;;;15.28;100.00;101811.19;5191568;28;20022;-67
2023/07/07 01:53:36;;;;;;;6.22;3.85;;;;;;;15.12;100.00;101811.75;5190698;28;20049;-67
2023/07/07 01:56:09;;;;;;;;;;;;;;;16.00;100.00;101810.78;5191985;28;20034;-68
2023/07/07 01:58:42;;;;;;;5.68;3.85;;;;;;;15.22;100.00;101809.94;5190879;28;19938;-67
2023/07/07 02:01:13;;;;;;;;;;;;;;;15.97;100.00;101800.50;5191746;28;20030;-66
2023/07/07 02:03:44;;;;;;;6.10;3.70;;;;;;;15.17;100.00;101808.69;5192438;28;20022;-67
2023/07/07 02:06:16;;;;;;;6.03;3.60;;;;;;;15.14;100.00;101806.31;5192430;28;20026;-66
2023/07/07 02:08:47;;;;;;;5.57;3.45;;;;;;;15.05;100.00;101808.81;5189353;28;20117;-66
2023/07/07 02:11:18;;;;;;;5.63;3.50;;;;;;;15.03;100.00;101810.72;5191531;28;20022;-66
2023/07/07 02:13:49;;;;;;;6.70;3.85;;;;;;;14.95;100.00;101801.81;5192652;28;20026;-66
2023/07/07 02:16:21;;;;;;;4.90;4.00;;;;;;;14.93;100.00;101795.88;5190609;28;20058;-65
2023/07/07 02:18:52;;;;;;;5.38;4.15;;;;;;;14.88;100.00;101795.41;5191746;28;20018;-67
2023/07/07 02:21:23;;;;;;;5.90;4.35;;;;;;;14.83;100.00;101796.66;5190692;28;20037;-67
2023/07/07 02:23:54;;;;;;;5.60;3.75;;;;;;;14.88;100.00;101798.88;5190599;28;20026;-68
2023/07/07 02:26:26;;;;;;;5.40;3.90;;;;;;;14.79;100.00;101802.34;5189310;28;20044;-66
2023/07/07 02:28:57;;;;;;;5.22;3.33;;;;;;;14.78;100.00;101795.41;5190500;28;20060;-66
2023/07/07 02:31:28;;;;;;;4.75;3.60;;;;;;;14.74;100.00;101799.28;5190750;28;20104;-65
2023/07/07 02:34:00;;;;;;;4.47;3.33;;;;;;;14.74;100.00;101792.19;5189817;28;20045;-66
2023/07/07 02:36:31;;;;;;;4.90;3.53;;;;;;;14.71;100.00;101808.28;5190973;28;20061;-66
2023/07/07 02:39:03;;;;;;;5.63;3.45;;;;;;;14.68;100.00;101802.44;5190408;28;20173;-65
2023/07/07 02:41:34;;;;;;;6.07;3.50;;;;;;;14.66;100.00;101794.66;5190903;28;20528;-66
2023/07/07 02:44:05;;;;;;;5.40;3.95;;;;;;;14.65;100.00;101794.78;5189716;28;20099;-67
2023/07/07 02:46:36;;;;;;;5.53;4.10;;;;;;;14.64;100.00;101804.50;5190915;28;20406;-67
2023/07/07 02:49:08;;;;;;;4.65;3.60;;;;;;;14.63;100.00;101804.66;5191369;28;20038;-64
2023/07/07 02:51:39;;;;;;;4.75;3.85;;;;;;;14.61;100.00;101812.69;5189193;28;20162;-68
2023/07/07 02:54:10;;;;;;;7.63;4.35;;;;;;;14.63;100.00;101807.28;5190499;28;20464;-65
2023/07/07 02:56:41;;;;;;;7.03;4.45;;;;;;;14.58;100.00;101805.03;5190978;28;20459;-67
2023/07/07 02:59:13;;;;;;;5.82;3.70;;;;;;;14.51;100.00;101812.66;5189550;28;20068;-66
2023/07/07 03:01:44;;;;;;;7.32;4.32;;;;;;;14.54;100.00;101811.53;5189486;28;20033;-66
2023/07/07 03:04:16;;;;;;;6.63;4.18;;;;;;;14.51;100.00;101817.09;5191168;28;20089;-68
2023/07/07 03:06:47;;;;;;;5.97;4.05;;;;;;;14.48;100.00;101823.44;5189821;28;20033;-66
2023/07/07 03:09:19;;;;;;;5.60;3.50;;;;;;;14.44;100.00;101819.38;5190109;28;20476;-66
2023/07/07 03:11:50;;;;;;;7.15;3.60;;;;;;;14.44;100.00;101814.13;5190537;28;20498;-67
2023/07/07 03:14:22;;;;;;;4.30;3.35;;;;;;;14.46;100.00;101821.88;5190550;28;20030;-68
2023/07/07 03:16:58;;;;;;;5.15;3.67;;;;;;;14.51;100.00;101820.56;5188381;28;20018;-66
2023/07/07 03:19:29;;;;;;;4.80;3.50;;;;;;;14.33;100.00;101817.66;5189963;28;20392;-67
2023/07/07 03:22:01;;;;;;;4.68;3.25;;;;;;;14.39;100.00;101826.00;5189875;28;20023;-67
2023/07/07 03:24:32;;;;;;;4.13;3.40;;;;;;;14.33;100.00;101825.56;5189216;28;20026;-65
2023/07/07 03:27:04;;;;;;;5.88;3.58;;;;;;;14.31;100.00;101827.50;5190645;28;20030;-66
2023/07/07 03:29:35;;;;;;;5.22;4.03;;;;;;;14.28;100.00;101825.13;5190165;28;20041;-66
2023/07/07 03:32:07;;;;;;;4.65;3.47;;;;;;;14.27;100.00;101825.25;5190633;28;20095;-67
2023/07/07 03:34:41;;;;;;;6.40;3.55;;;;;;;14.31;100.00;101827.50;5188455;28;20034;-66
2023/07/07 03:37:12;;;;;;;5.13;4.05;;;;;;;14.23;100.00;101829.94;5189682;28;20045;-65
2023/07/07 03:39:44;;;;;;;6.32;4.18;;;;;;;14.21;100.00;101828.44;5190433;28;20030;-67
2023/07/07 03:42:15;;;;;;;8.57;3.88;;;;;;;14.18;100.00;101824.22;5188800;28;20392;-66
2023/07/07 03:44:46;;;;;;;7.15;4.13;;;;;;;14.16;100.00;101825.31;5189681;28;20121;-66
2023/07/07 03:47:17;;;;;;;5.95;3.85;;;;;;;14.20;100.00;101818.81;5189197;28;20030;-68
2023/07/07 03:49:49;;;;;;;5.28;3.97;;;;;;;14.18;100.00;101824.22;5189242;28;20476;-65
2023/07/07 03:52:21;;;;;;;5.90;3.83;;;;;;;14.20;100.00;101829.38;5189540;28;20030;-67
2023/07/07 03:54:52;;;;;;;5.75;4.03;;;;;;;14.17;100.00;101821.72;5188689;28;20038;-67
2023/07/07 03:57:23;;;;;;;4.82;3.75;;;;;;;14.14;100.00;101825.47;5189660;28;20022;-67
2023/07/07 03:59:55;;;;;;;8.35;4.13;;;;;;;14.08;100.00;101818.06;5188875;28;20046;-66
2023/07/07 04:02:27;;;;;;;6.88;3.88;;;;;;;14.16;100.00;101820.88;5188312;28;20514;-67
2023/07/07 04:04:58;;;;;;;6.83;3.93;;;;;;;14.15;100.00;101816.59;5188431;28;20040;-67
2023/07/07 04:07:30;;;;;;;6.43;3.67;;;;;;;14.08;100.00;101823.34;5189660;28;20771;-66
2023/07/07 04:10:03;;;;;;;5.28;4.05;;;;;;;14.14;100.00;101817.56;5187941;28;20026;-67
2023/07/07 04:12:34;;;;;;;8.73;3.85;;;;;;;14.12;100.00;101819.47;5189708;28;20038;-67
2023/07/07 04:15:06;;;;;;;6.55;4.28;;;;;;;14.16;100.00;101825.31;5190219;28;20383;-66
2023/07/07 04:17:37;;;;;;;5.40;3.90;;;;;;;14.15;100.00;101828.94;5188746;28;20472;-67
2023/07/07 04:20:09;;;;;;;5.63;3.58;;;;;;;14.23;100.00;101839.66;5189537;28;20069;-67
2023/07/07 04:22:40;;;;;;;6.75;3.95;;;;;;;14.27;100.00;101843.69;5189002;28;20038;-68
2023/07/07 04:25:16;;;;;;;5.53;4.13;;;;;;;14.36;100.00;101830.59;5189719;28;20485;-66
2023/07/07 04:27:48;;;;;;;5.82;4.03;;;;;;;14.32;100.00;101839.72;5187646;28;20141;-66
2023/07/07 04:30:19;;;;;;;6.55;4.55;;;;;;;14.39;100.00;101839.19;5189045;28;20022;-67
2023/07/07 04:32:50;;;;;;;6.68;3.58;;;;;;;14.42;100.00;101834.50;5187483;28;20027;-68
2023/07/07 04:35:21;;;;;;;5.53;3.72;;;;;;;14.46;100.00;101832.44;5188738;28;20030;-67
2023/07/07 04:37:53;;;;;;;7.13;4.30;;;;;;;14.53;100.00;101834.44;5189187;28;20023;-67
2023/07/07 04:40:24;;;;;;;5.03;4.22;;;;;;;14.58;100.00;101836.66;5189117;28;20053;-66
2023/07/07 04:42:55;;;;;;;6.45;4.07;;;;;;;14.60;100.00;101834.75;5188253;28;20080;-68
2023/07/07 04:45:26;;;;;;;6.03;4.25;;;;;;;14.67;100.00;101840.34;5188070;28;20041;-67
2023/07/07 04:47:58;;;;;;;8.00;4.88;;;;;;;14.79;100.00;101834.00;5188433;28;20161;-68
2023/07/07 04:50:32;;;;;;;7.57;4.75;;;;;;;14.89;100.00;101823.47;5187663;28;20384;-67
2023/07/07 04:53:04;;;;;;;6.15;4.88;;;;;;;14.92;100.00;101839.84;5188715;28;20026;-68
2023/07/07 04:55:40;;;;;;;5.70;4.80;;;;;;;15.02;100.00;101829.34;5187912;28;20033;-67
2023/07/07 04:58:11;;;;;;;8.68;5.22;;;;;;;14.94;100.00;101840.56;5187418;28;20144;-67
2023/07/07 05:00:42;;;;;;;7.10;4.93;;;;;;;15.09;100.00;101831.31;5188552;28;20120;-68
2023/07/07 05:03:13;;;;;;;7.47;5.20;;;;;;;15.09;100.00;101831.31;5188092;28;20026;-68
2023/07/07 05:05:45;;;;;;;7.03;5.00;;;;;;;15.15;100.00;101832.56;5188531;28;20407;-66
2023/07/07 05:08:16;;;;;;;9.25;5.30;;;;;;;15.24;100.00;101830.94;5187187;28;20879;-67
2023/07/07 05:10:48;;;;;;;10.55;5.32;;;;;;;15.32;100.00;101836.34;5188837;28;20439;-65
2023/07/07 05:13:19;;;;;;;8.18;5.43;;;;;;;15.29;100.00;101842.72;5189898;28;20815;-67
2023/07/07 05:15:58;;;;;;;8.93;5.40;;;;;;;15.57;100.00;101846.41;5189206;28;20472;-67
2023/07/07 05:18:30;;;;;;;8.93;5.47;;;;;;;15.74;100.00;101847.53;5188159;28;20034;-67
2023/07/07 05:21:02;;;;;;;7.53;5.05;;;;;;;15.78;100.00;101838.34;5188995;28;20026;-67
2023/07/07 05:23:35;;;;;;;7.80;5.50;;;;;;;15.90;100.00;101846.97;5188716;28;20026;-67
2023/07/07 05:26:07;;;;;;;7.23;4.83;;;;;;;16.02;100.00;101843.22;5187837;28;20484;-67
2023/07/07 05:28:38;;;;;;;7.70;4.70;;;;;;;16.11;100.00;101843.34;5189087;28;20718;-66
2023/07/07 05:31:09;;;;;;;9.93;5.28;;;;;;;16.24;100.00;101849.13;5188785;28;20389;-66
2023/07/07 05:33:41;;;;;;;7.07;4.40;;;;;;;16.39;100.00;101852.16;5188654;28;20081;-68
2023/07/07 05:36:12;;;;;;;7.72;5.00;;;;;;;16.46;100.00;101842.69;5187764;28;20041;-67
2023/07/07 05:38:43;;;;;;;5.57;4.13;;;;;;;16.53;100.00;101839.31;5203653;28;20070;-67
2023/07/07 05:41:15;;;;;;;7.55;4.72;;;;;;;16.57;100.00;101837.22;5186946;28;20041;-64
2023/07/07 05:43:46;;;;;;;5.95;4.07;;;;;;;16.74;100.00;101844.44;5189393;28;20022;-67
2023/07/07 05:46:18;;;;;;;14.07;4.78;;;;;;;16.85;100.00;101850.50;5188339;28;20114;-67
2023/07/07 05:48:49;;;;;;;8.88;4.32;;;;;;;17.00;100.00;101856.97;5191442;28;20053;-67
2023/07/07 05:51:21;;;;;;;7.75;4.50;;;;;;;17.06;100.00;101859.03;5190222;28;20026;-66
2023/07/07 05:53:52;;;;;;;7.53;4.20;;;;;;;17.11;100.00;101858.59;5192387;28;20496;-69
2023/07/07 05:56:24;;;;;;;8.73;3.50;;;;;;;17.25;100.00;101853.63;5192043;28;20037;-65
2023/07/07 05:58:55;;;;;;;8.10;3.97;;;;;;;17.40;100.00;101855.78;5191710;28;20046;-67
2023/07/07 06:01:27;;;;;;;5.70;3.38;;;;;;;17.58;100.00;101853.09;5191866;28;21152;-68
2023/07/07 06:03:58;;;;;;;6.32;3.83;;;;;;;17.49;100.00;101853.03;5192443;28;20038;-67
2023/07/07 06:06:29;;;;;;;11.17;3.83;;;;;;;17.75;100.00;101852.31;5189219;28;20575;-68
2023/07/07 06:09:00;;;;;;;7.88;4.13;;;;;;;17.93;100.00;101854.97;5191699;28;20644;-67
2023/07/07 06:11:32;;;;;;;4.90;2.97;;;;;;;18.09;100.00;101855.06;5190862;28;20034;-67
2023/07/07 06:14:03;;;;;;;7.38;3.53;;;;;;;18.16;99.38;101850.00;5190677;28;20399;-67
2023/07/07 06:16:34;;;;;;;5.50;3.25;;;;;;;18.31;96.72;101852.91;5190599;28;20030;-65
2023/07/07 06:19:06;;;;;;;7.85;3.55;;;;;;;18.43;95.13;101856.97;5190299;28;20038;-66
2023/07/07 06:21:37;;;;;;;5.22;3.40;;;;;;;18.61;92.82;101852.41;5189049;28;20472;-64
2023/07/07 06:24:08;;;;;;;3.97;3.10;;;;;;;18.74;90.16;101843.22;5190862;28;20398;-67
2023/07/07 06:26:40;;;;;;;7.18;3.58;;;;;;;18.84;88.86;101849.22;5190138;28;20735;-67
2023/07/07 06:29:11;;;;;;;4.82;3.00;;;;;;;19.06;83.96;101853.13;5191641;28;20077;-68
2023/07/07 06:31:42;;;;;;;6.00;2.73;;;;;;;19.17;82.81;101851.00;5191107;28;20520;-66
2023/07/07 06:34:13;;;;;;;5.97;3.45;;;;;;;19.28;81.47;101849.88;5191078;28;20779;-67
2023/07/07 06:36:45;;;;;;;4.85;3.10;;;;;;;19.52;77.03;101851.75;5190585;28;20038;-66
2023/07/07 06:39:16;;;;;;;5.47;2.87;;;;;;;19.66;76.42;101851.13;5190313;28;20029;-68
2023/07/07 06:41:48;;;;;;;6.65;3.40;;;;;;;19.77;73.42;101851.78;5190662;28;20274;-68
2023/07/07 06:44:19;;;;;;;7.47;3.10;;;;;;;19.85;72.82;101851.78;5189433;28;20462;-67
2023/07/07 06:46:50;;;;;;;6.28;3.00;;;;;;;20.02;72.56;101852.63;5188650;28;20519;-67
2023/07/07 06:49:21;;;;;;;6.43;2.80;;;;;;;20.26;68.26;101854.41;5186086;28;20120;-69
2023/07/07 06:51:53;;;;;;;5.97;2.85;;;;;;;20.41;67.46;101858.03;5188539;28;20026;-67
2023/07/07 06:54:24;;;;;;;4.30;2.83;;;;;;;20.59;64.62;101860.50;5187623;28;20121;-65
2023/07/07 06:56:55;;;;;;;5.23;2.80;;;;;;;20.67;67.96;101863.16;5189042;28;20130;-66
2023/07/07 06:59:27;;;;;;;4.63;2.78;;;;;;;20.95;61.32;101866.22;5186985;28;20105;-67
2023/07/07 07:01:58;;;;;;;5.82;2.60;;;;;;;21.06;65.07;101862.31;5190810;28;20045;-67
2023/07/07 07:04:29;;;;;;;6.03;2.60;;;;;;;21.26;59.21;101868.06;5190194;28;20034;-67
2023/07/07 07:07:00;;;;;;;5.97;2.70;;;;;;;21.48;59.30;101869.09;5189723;28;20457;-67
2023/07/07 07:09:32;;;;;;;7.47;2.67;;;;;;;21.65;57.08;101867.16;5189275;28;20026;-66
2023/07/07 07:12:03;;;;;;;5.87;2.53;;;;;;;21.77;57.85;101860.38;5187454;28;20488;-67
2023/07/07 07:14:35;;;;;;;8.10;3.10;;;;;;;21.99;59.23;101867.53;5186953;28;20483;-67
2023/07/07 07:17:08;;;;;;;6.80;2.47;;;;;;;22.11;55.83;101871.41;5189056;28;21091;-69
2023/07/07 07:19:39;;;;;;;5.15;2.42;;;;;;;22.23;54.31;101879.03;5189999;28;20034;-68
2023/07/07 07:22:10;;;;;;;4.80;2.50;;;;;;;22.34;53.79;101875.91;5188728;28;20514;-68
2023/07/07 07:24:42;;;;;;;11.80;2.87;;;;;;;22.47;51.27;101870.78;5189546;28;20073;-67
2023/07/07 07:27:13;;;;;;;3.80;2.03;;;;;;;22.61;49.17;101863.75;5190150;28;20108;-68
2023/07/07 07:29:45;;;;;;;4.13;2.10;;;;;;;22.89;50.23;101879.97;5188679;28;20037;-67
2023/07/07 07:32:17;;;;;;;3.93;1.90;;;;;;;22.93;49.54;101875.94;5189688;28;20104;-67
2023/07/07 07:34:48;;;;;;;5.13;2.23;;;;;;;23.09;46.65;101869.53;5188079;28;20089;-68
2023/07/07 07:37:20;;;;;;;5.37;2.50;;;;;;;23.16;46.65;101872.31;5188760;28;20169;-68
2023/07/07 07:39:51;;;;;;;4.83;2.10;;;;;;;23.30;45.73;101882.13;5189269;28;20041;-68
2023/07/07 07:42:22;;;;;;;4.57;2.07;;;;;;;23.41;44.82;101878.97;5189481;28;20692;-68
2023/07/07 07:44:53;;;;;;;4.40;2.00;;;;;;;23.59;46.57;101872.34;5189066;28;20392;-69
2023/07/07 07:47:25;;;;;;;5.83;2.10;;;;;;;23.68;47.48;101866.72;5189903;28;20388;-69
2023/07/07 07:49:56;;;;;;;3.63;2.13;;;;;;;23.93;45.43;101869.78;5188844;28;20075;-68
2023/07/07 07:52:27;;;;;;;6.10;2.37;;;;;;;24.08;46.07;101876.91;5187377;28;20023;-67
2023/07/07 07:54:59;;;;;;;6.43;2.07;;;;;;;24.08;43.66;101875.06;5189140;28;20081;-68
2023/07/07 07:57:30;;;;;;;4.77;2.10;;;;;;;24.34;43.54;101870.91;5189358;28;20023;-69
2023/07/07 08:00:04;;;;;;;4.93;2.33;;;;;;;24.54;45.02;101879.09;5186294;28;20041;-68
2023/07/07 08:02:37;;;;;;;5.13;2.08;;;;;;;24.59;43.36;101876.69;5187903;28;20034;-67
2023/07/07 08:05:09;;;;;;;;;;;;;;;25.33;43.41;101875.94;5203809;28;20065;-70
2023/07/07 08:07:40;;;;;;;5.68;2.10;;;;;;;24.85;43.49;101890.22;5191243;28;19921;-69
2023/07/07 08:10:11;;;;;;;5.23;2.00;;;;;;;24.97;42.55;101887.78;5189044;28;20089;-67
2023/07/07 08:12:43;;;;;;;6.13;2.33;;;;;;;25.17;43.77;101880.66;5188346;28;20416;-67
2023/07/07 08:15:14;;;;;;;4.70;1.77;;;;;;;25.31;41.54;101880.72;5186672;28;20396;-70
2023/07/07 08:17:45;;;;;;;5.17;2.13;;;;;;;25.39;41.39;101886.69;5188376;28;20148;-66
2023/07/07 08:20:19;;;;;;;4.93;2.10;;;;;;;25.59;41.70;101883.22;5188058;28;20097;-68
2023/07/07 08:22:50;;;;;;;4.32;2.05;;;;;;;25.68;42.93;101885.53;5189033;28;20023;-66
2023/07/07 08:25:22;;;;;;;3.80;2.00;;;;;;;25.89;41.39;101891.75;5188897;28;20057;-69
2023/07/07 08:27:53;;;;;;;3.50;2.13;;;;;;;25.91;39.87;101871.72;5188323;28;20038;-68
2023/07/07 08:30:24;;;;;;;5.17;1.93;;;;;;;26.07;39.34;101883.91;5189304;28;20089;-68
2023/07/07 08:32:56;;;;;;;3.23;1.87;;;;;;;26.23;39.01;101884.50;5188031;28;20058;-70
2023/07/07 08:35:27;;;;;;;4.67;2.17;;;;;;;26.37;39.26;101886.16;5190019;28;20037;-70
2023/07/07 08:37:59;;;;;;;3.90;2.00;;;;;;;26.36;38.68;101884.47;5189473;28;20099;-68
2023/07/07 08:40:45;;;;;;;4.23;2.03;;;;;;;26.80;39.25;101888.31;5187047;28;20159;-72
2023/07/07 08:43:18;;;;;;;3.40;1.70;;;;;;;26.54;37.15;101879.28;5187869;28;20038;-67
2023/07/07 08:46:14;;;;;;;6.38;1.95;;;;;;;27.03;38.45;101883.25;5188430;28;20041;-68
2023/07/07 08:48:56;;;;;;;4.32;2.28;;;;;;;26.97;38.12;101884.09;5187439;28;20023;-69
2023/07/07 08:51:36;;;;;;;3.63;2.03;;;;;;;27.17;37.22;101881.38;5188840;28;20352;-68
2023/07/07 08:54:25;;;;;;;3.58;1.90;;;;;;;27.19;35.46;101887.34;5187043;28;20109;-66
2023/07/07 08:57:07;;;;;;;3.85;1.90;;;;;;;27.23;35.77;101874.28;5186945;28;20084;-67
2023/07/07 09:00:05;;;;;;;5.22;2.03;;;;;;;27.49;36.88;101876.00;5187826;28;20042;-67
2023/07/07 09:03:01;;;;;;;2.83;1.77;;;;;;;27.43;36.37;101883.06;5187338;28;20026;-71
2023/07/07 09:05:51;;;;;;;3.00;1.70;;;;;;;27.57;35.99;101881.09;5186940;28;20030;-68
2023/07/07 09:08:57;;;;;;;4.15;2.35;;;;;;;27.52;35.09;101878.25;5187708;28;20480;-67
2023/07/07 09:12:01;;;;;;;3.83;1.88;;;;;;;27.97;34.25;101872.75;5144479;28;20441;-69
2023/07/07 09:14:34;;;;;;;6.72;2.03;;;;;;;27.78;34.95;101875.38;5186416;28;20038;-66
2023/07/07 09:17:15;;;;;;;3.55;1.92;;;;;;;27.91;33.39;101870.94;5186041;28;20031;-69
2023/07/07 09:19:48;;;;;;;2.60;1.50;;;;;;;27.77;32.58;101873.75;5186312;28;20069;-69
2023/07/07 09:22:47;;;;;;;3.60;1.90;;;;;;;27.98;31.48;101872.53;5185775;28;20285;-68
2023/07/07 09:25:23;;;;;;;2.90;1.77;;;;;;;28.03;32.01;101874.53;5191677;28;20030;-67
2023/07/07 09:28:00;;;;;;;3.45;1.98;;;;;;;28.09;31.95;101876.38;5190891;28;20026;-67
2023/07/07 09:30:48;;;;;;;3.53;1.80;;;;;;;28.48;33.20;101882.41;5191427;28;20031;-67
2023/07/07 09:33:22;;;;;;;4.47;1.73;;;;;;;28.25;30.89;101873.09;5190571;28;20030;-69
2023/07/07 09:36:06;;;;;;;3.22;1.85;;;;;;;28.55;32.93;101873.22;5190178;28;20141;-68
2023/07/07 09:39:07;;;;;;;5.35;2.58;;;;;;;28.86;32.43;101872.22;5191966;28;20090;-66
2023/07/07 09:41:54;;;;;;;3.75;1.95;;;;;;;28.73;31.60;101868.88;5191564;28;20041;-68
2023/07/07 09:45:01;;;;;;;3.25;2.42;;;;;;;28.95;31.15;101861.94;5191375;28;20024;-68
2023/07/07 09:47:54;;;;;;;2.95;1.77;;;;;;;29.09;32.00;101865.31;5190687;28;20499;-69
2023/07/07 09:50:39;;;;;;;4.93;2.20;;;;;;;29.22;32.31;101867.00;5190899;28;20084;-67
2023/07/07 09:53:23;;;;;;;3.55;2.08;;;;;;;29.16;31.47;101871.44;5190768;28;20030;-72
2023/07/07 09:55:55;;;;;;;2.92;1.88;;;;;;;29.15;30.03;101859.00;5190656;28;20053;-69
2023/07/07 09:58:37;;;;;;;4.50;1.95;;;;;;;29.22;30.37;101862.44;5190680;28;20054;-68
2023/07/07 10:01:10;;;;;;;3.20;1.83;;;;;;;29.27;29.66;101851.75;5190008;28;20085;-69
2023/07/07 10:03:44;;;;;;;4.32;2.05;;;;;;;29.18;29.75;101860.44;5192898;28;20033;-68
2023/07/07 10:06:31;;;;;;;4.13;2.10;;;;;;;29.43;30.07;101860.25;5192959;28;20056;-67
2023/07/07 10:09:03;;;;;;;5.63;2.17;;;;;;;29.21;29.00;101849.16;5191020;28;20496;-66
2023/07/07 10:11:37;;;;;;;3.47;1.90;;;;;;;29.33;30.49;101850.84;5190360;28;20026;-68
2023/07/07 10:14:15;;;;;;;5.10;2.00;;;;;;;29.46;30.11;101849.00;5188899;28;20100;-69
2023/07/07 10:17:08;;;;;;;4.47;1.88;;;;;;;29.87;30.22;101844.63;5188678;28;20038;-68
2023/07/07 10:19:45;;;;;;;4.32;2.00;;;;;;;29.65;29.19;101847.06;5189905;28;20036;-69
2023/07/07 10:22:16;;;;;;;3.22;1.85;;;;;;;29.69;29.27;101853.63;5190076;28;20026;-67
2023/07/07 10:24:48;;;;;;;3.63;1.93;;;;;;;29.65;27.60;101844.34;5190999;28;20488;-70
2023/07/07 10:27:26;;;;;;;2.80;1.70;;;;;;;29.82;28.81;101834.53;5189978;28;20542;-68
2023/07/07 10:30:03;;;;;;;2.78;1.65;;;;;;;29.72;28.38;101840.50;5190850;28;20026;-70
2023/07/07 10:32:34;;;;;;;5.65;2.08;;;;;;;29.85;29.11;101838.63;5190968;28;20042;-67
2023/07/07 10:35:07;;;;;;;3.00;1.83;;;;;;;30.11;28.64;101832.72;5186701;28;20034;-68
2023/07/07 10:37:38;;;;;;;3.55;2.00;;;;;;;30.01;28.29;101832.53;5190417;28;20026;-67
2023/07/07 10:40:14;;;;;;;3.80;1.93;;;;;;;30.25;28.29;101836.03;5188808;28;20053;-67
2023/07/07 10:42:50;;;;;;;4.30;2.03;;;;;;;30.26;28.05;101841.19;5190171;28;20053;-67
2023/07/07 10:45:22;;;;;;;5.38;1.95;;;;;;;30.25;28.40;101836.88;5188617;28;20032;-69
2023/07/07 10:47:54;;;;;;;4.70;2.05;;;;;;;30.29;28.36;101837.22;5189413;28;20026;-69
2023/07/07 10:50:32;;;;;;;4.78;2.10;;;;;;;30.26;27.33;101830.38;5190176;28;20112;-69
2023/07/07 10:53:15;;;;;;;5.53;2.10;;;;;;;30.17;27.82;101834.53;5190112;28;20432;-69
2023/07/07 10:56:02;;;;;;;4.50;1.95;;;;;;;30.35;28.26;101838.16;5190959;28;20448;-68
2023/07/07 10:58:52;;;;;;;4.85;2.08;;;;;;;30.37;28.10;101828.72;5190935;28;20092;-68
2023/07/07 11:01:31;;;;;;;3.75;1.88;;;;;;;30.56;27.94;101826.69;5190537;28;20365;-67
2023/07/07 11:04:18;;;;;;;4.60;2.00;;;;;;;30.97;28.46;101827.50;5189946;28;20030;-70
2023/07/07 11:07:07;;;;;;;4.60;2.20;;;;;;;30.97;27.83;101822.91;5189351;28;20034;-67
2023/07/07 11:09:47;;;;;;;4.05;1.90;;;;;;;30.68;26.83;101832.88;5190027;28;20153;-69
2023/07/07 11:12:24;;;;;;;3.22;1.85;;;;;;;30.97;26.39;101819.38;5188558;28;21584;-71
2023/07/07 11:15:17;;;;;;;4.10;1.90;;;;;;;31.26;25.21;101820.19;5187568;28;20034;-67
2023/07/07 11:18:04;;;;;;;4.13;2.20;;;;;;;30.88;25.19;101823.56;5184753;28;20034;-67
2023/07/07 11:20:57;;;;;;;3.50;2.08;;;;;;;31.24;24.91;101820.41;5181340;28;20369;-68
2023/07/07 11:23:46;;;;;;;4.50;2.15;;;;;;;31.18;25.37;101815.16;5182298;28;20033;-68
2023/07/07 11:26:43;;;;;;;5.88;2.10;;;;;;;31.65;26.16;101812.97;5186961;28;20523;-67
2023/07/07 11:29:29;;;;;;;4.07;2.13;;;;;;;31.07;24.60;101811.47;5190492;28;20546;-65
2023/07/07 11:32:12;;;;;;;5.32;2.47;;;;;;;31.40;25.48;101812.56;5190487;28;20041;-68
2023/07/07 11:35:06;;;;;;;2.70;1.80;;;;;;;31.58;24.93;101804.19;5189559;28;20038;-68
2023/07/07 11:37:57;;;;;;;4.43;2.83;;;;;;;31.37;26.08;101807.66;5189071;28;20049;-66
2023/07/07 11:40:46;;;;;;;4.47;2.05;;;;;;;31.47;25.10;101803.22;5188252;28;20026;-68
2023/07/07 11:43:32;;;;;;;4.28;2.30;;;;;;;31.72;24.62;101802.78;5188989;28;20345;-69
2023/07/07 11:46:38;;;;;;;3.88;2.25;;;;;;;31.74;25.55;101808.75;5185598;28;20084;-69
2023/07/07 11:49:43;;;;;;;2.65;2.00;;;;;;;32.05;24.41;101801.13;5188023;28;20030;-69
2023/07/07 11:52:24;;;;;;;4.20;2.10;;;;;;;32.22;24.75;101795.63;5188004;28;20062;-69
2023/07/07 11:55:15;;;;;;;6.22;2.58;;;;;;;32.17;23.99;101803.72;5190710;28;20053;-68
2023/07/07 11:58:24;;;;;;;5.47;2.50;;;;;;;32.52;23.58;101797.94;5190061;28;20026;-69
2023/07/07 12:01:18;;;;;;;5.15;2.03;;;;;;;32.52;23.46;101803.34;5190744;28;20022;-68